createdAt,value
2019-04-06T00:00:44.331Z,205.47
2019-04-06T00:03:13.362Z,187.18
2019-04-06T00:05:41.644Z,180.78
2019-04-06T00:08:09.899Z,174.12
2019-04-06T00:10:38.179Z,185.57
2019-04-06T00:13:06.466Z,197.02
2019-04-06T00:15:34.757Z,190.80
2019-04-06T00:18:02.979Z,209.77
2019-04-06T00:20:31.826Z,245.85
2019-04-06T00:23:00.087Z,197.85
2019-04-06T00:25:29.140Z,235.25
2019-04-06T00:27:57.394Z,223.07
2019-04-06T00:30:25.749Z,218.65
2019-04-06T00:32:55.647Z,230.70
2019-04-06T00:35:24.504Z,230.52
2019-04-06T00:37:52.764Z,247.07
2019-04-06T00:40:21.042Z,233.53
2019-04-06T00:42:49.298Z,256.30
2019-04-06T00:45:17.574Z,249.80
2019-04-06T00:47:45.832Z,274.60
2019-04-06T00:50:14.683Z,260.45
2019-04-06T00:52:42.939Z,272.05
2019-04-06T00:55:11.222Z,264.55
2019-04-06T00:57:39.484Z,259.50
2019-04-06T01:00:07.767Z,252.18
2019-04-06T01:02:36.026Z,250.97
2019-04-06T01:05:05.917Z,238.55
2019-04-06T01:07:34.175Z,255.07
2019-04-06T01:10:02.471Z,251.42
2019-04-06T01:12:32.077Z,235.95
2019-04-06T01:15:00.364Z,246.22
2019-04-06T01:17:28.983Z,267.13
2019-04-06T01:19:57.268Z,255.65
2019-04-06T01:22:25.528Z,265.15
2019-04-06T01:24:53.811Z,261.70
2019-04-06T01:27:22.066Z,302.22
2019-04-06T01:29:50.327Z,254.82
2019-04-06T01:32:18.615Z,250.00
2019-04-06T01:34:46.870Z,253.40
2019-04-06T01:37:15.154Z,248.45
2019-04-06T01:39:43.419Z,283.25
2019-04-06T01:42:11.703Z,263.52
2019-04-06T01:44:39.967Z,288.30
2019-04-06T01:47:08.256Z,303.12
2019-04-06T01:49:36.522Z,312.30
2019-04-06T01:52:04.807Z,292.92
2019-04-06T01:54:33.068Z,343.12
2019-04-06T01:57:01.347Z,372.77
2019-04-06T01:59:29.611Z,328.60
2019-04-06T02:02:01.977Z,321.35
2019-04-06T02:04:30.903Z,342.87
2019-04-06T02:06:59.255Z,375.43
2019-04-06T02:09:27.520Z,347.35
2019-04-06T02:11:56.568Z,355.48
2019-04-06T02:14:24.829Z,341.73
2019-04-06T02:16:53.110Z,349.32
2019-04-06T02:19:21.371Z,365.07
2019-04-06T02:21:49.655Z,345.55
2019-04-06T02:24:18.507Z,329.77
2019-04-06T02:26:47.555Z,326.58
2019-04-06T02:29:16.098Z,346.50
2019-04-06T02:31:48.462Z,322.37
2019-04-06T02:34:27.124Z,294.80
2019-04-06T02:36:57.033Z,285.88
2019-04-06T02:39:43.740Z,292.43
2019-04-06T02:42:14.202Z,292.27
2019-04-06T02:44:42.460Z,284.20
2019-04-06T02:47:10.801Z,297.57
2019-04-06T02:49:39.011Z,307.32
2019-04-06T02:52:07.294Z,295.45
2019-04-06T02:54:36.532Z,314.88
2019-04-06T02:57:04.823Z,292.50
2019-04-06T02:59:33.077Z,288.82
2019-04-06T03:02:01.487Z,305.65
2019-04-06T03:04:29.805Z,278.07
2019-04-06T03:06:58.065Z,306.87
2019-04-06T03:09:26.898Z,285.07
2019-04-06T03:11:55.170Z,296.00
2019-04-06T03:14:23.446Z,271.07
2019-04-06T03:16:51.718Z,287.60
2019-04-06T03:19:19.974Z,285.10
2019-04-06T03:21:48.263Z,300.02
2019-04-06T03:24:17.176Z,284.90
2019-04-06T03:26:59.424Z,267.23
2019-04-06T03:29:15.432Z,254.03
2019-04-06T03:31:44.884Z,287.50
2019-04-06T03:34:13.324Z,274.52
2019-04-06T03:36:41.609Z,278.20
2019-04-06T03:39:09.868Z,283.13
2019-04-06T03:41:38.226Z,292.65
2019-04-06T03:44:07.187Z,284.60
2019-04-06T03:46:35.515Z,264.08
2019-04-06T03:49:03.728Z,260.35
2019-04-06T03:51:32.017Z,272.10
2019-04-06T03:54:00.839Z,271.95
2019-04-06T03:56:29.131Z,254.38
2019-04-06T04:01:29.779Z,272.65
2019-04-06T04:03:58.034Z,279.90
2019-04-06T04:06:26.295Z,268.82
2019-04-06T04:08:54.589Z,268.48
2019-04-06T04:11:22.847Z,263.00
2019-04-06T04:13:51.133Z,257.62
2019-04-06T04:16:19.960Z,276.60
2019-04-06T04:18:48.239Z,257.70
2019-04-06T04:21:16.500Z,267.48
2019-04-06T04:23:44.780Z,259.40
2019-04-06T04:26:13.039Z,259.87
2019-04-06T04:28:41.652Z,276.48
2019-04-06T04:31:09.907Z,265.23
2019-04-06T04:33:38.188Z,258.98
2019-04-06T04:36:06.452Z,261.75
2019-04-06T04:38:34.865Z,278.58
2019-04-06T04:41:03.277Z,266.57
2019-04-06T04:43:33.487Z,270.20
2019-04-06T04:46:01.744Z,257.05
2019-04-06T04:48:30.121Z,265.35
2019-04-06T04:50:58.362Z,265.55
2019-04-06T04:53:26.651Z,266.30
2019-04-06T04:55:54.907Z,268.57
2019-04-06T04:58:23.402Z,252.03
2019-04-06T05:00:51.728Z,247.05
2019-04-06T05:03:20.174Z,249.42
2019-04-06T05:05:48.450Z,225.43
2019-04-06T05:08:16.734Z,232.18
2019-04-06T05:10:44.995Z,236.77
2019-04-06T05:13:13.491Z,249.47
2019-04-06T05:16:04.594Z,241.17
2019-04-06T05:18:32.881Z,241.42
2019-04-06T05:21:01.138Z,234.43
2019-04-06T05:23:29.424Z,230.37
2019-04-06T05:25:58.257Z,243.27
2019-04-06T05:28:26.539Z,213.35
2019-04-06T05:30:54.802Z,204.43
2019-04-06T05:33:23.091Z,208.82
2019-04-06T05:35:51.352Z,203.75
2019-04-06T05:38:19.760Z,189.50
2019-04-06T05:40:47.980Z,191.43
2019-04-06T05:43:16.332Z,188.10
2019-04-06T05:45:44.743Z,211.22
2019-04-06T05:48:13.028Z,188.93
2019-04-06T05:50:42.727Z,199.72
2019-04-06T05:53:11.100Z,182.60
2019-04-06T05:55:39.338Z,180.87
2019-04-06T05:58:10.662Z,196.47
2019-04-06T06:00:40.130Z,183.32
2019-04-06T06:03:08.575Z,183.15
2019-04-06T06:05:40.235Z,176.10
2019-04-06T06:08:07.820Z,182.90
2019-04-06T06:10:38.312Z,165.77
2019-04-06T06:13:06.597Z,169.97
2019-04-06T06:15:34.976Z,168.32
2019-04-06T06:18:03.213Z,166.97
2019-04-06T06:20:32.363Z,172.25
2019-04-06T06:23:00.602Z,167.85
2019-04-06T06:25:29.636Z,163.43
2019-04-06T06:27:58.082Z,169.45
2019-04-06T06:30:27.158Z,170.55
2019-04-06T06:32:55.585Z,152.90
2019-04-06T06:35:23.908Z,162.32
2019-04-06T06:37:52.791Z,148.55
2019-04-06T06:40:21.053Z,164.80
2019-04-06T06:42:49.466Z,150.30
2019-04-06T06:45:17.695Z,144.90
2019-04-06T06:47:45.965Z,145.45
2019-04-06T06:50:14.225Z,136.15
2019-04-06T06:52:43.372Z,135.15
2019-04-06T06:55:11.816Z,138.65
2019-04-06T06:57:40.109Z,132.93
2019-04-06T07:00:09.504Z,139.28
2019-04-06T07:02:37.789Z,142.50
2019-04-06T07:05:06.625Z,145.72
2019-04-06T07:07:34.915Z,135.43
2019-04-06T07:10:05.732Z,134.63
2019-04-06T07:15:01.306Z,125.42
2019-04-06T07:17:29.566Z,130.65
2019-04-06T07:19:57.859Z,136.52
2019-04-06T07:22:26.291Z,130.18
2019-04-06T07:24:54.576Z,129.10
2019-04-06T07:27:22.835Z,133.40
2019-04-06T07:29:51.252Z,150.78
2019-04-06T07:32:19.527Z,123.65
2019-04-06T07:34:47.809Z,116.53
2019-04-06T07:37:16.066Z,120.70
2019-04-06T07:39:44.351Z,113.00
2019-04-06T07:42:12.626Z,114.28
2019-04-06T07:44:40.919Z,113.42
2019-04-06T07:47:09.175Z,129.45
2019-04-06T07:49:37.460Z,160.93
2019-04-06T07:52:05.932Z,168.32
2019-04-06T07:54:34.192Z,123.18
2019-04-06T07:57:02.517Z,138.97
2019-04-06T07:59:30.807Z,112.90
2019-04-06T08:01:59.067Z,110.15
2019-04-06T08:04:27.427Z,105.20
2019-04-06T08:06:55.812Z,103.42
2019-04-06T08:09:24.820Z,116.62
2019-04-06T08:11:53.287Z,94.52
2019-04-06T08:14:21.538Z,102.80
2019-04-06T08:16:49.846Z,98.72
2019-04-06T08:19:18.075Z,101.47
2019-04-06T08:21:46.329Z,88.97
2019-04-06T08:24:15.284Z,107.55
2019-04-06T08:26:46.026Z,110.28
2019-04-06T08:29:13.566Z,105.60
2019-04-06T08:31:42.098Z,95.80
2019-04-06T08:34:10.351Z,99.05
2019-04-06T08:36:38.643Z,104.27
2019-04-06T08:39:08.258Z,98.45
2019-04-06T08:41:36.565Z,95.85
2019-04-06T08:44:04.852Z,87.33
2019-04-06T08:46:33.136Z,83.30
2019-04-06T08:49:01.397Z,84.07
2019-04-06T08:51:29.758Z,83.50
2019-04-06T08:53:58.024Z,78.83
2019-04-06T08:56:27.704Z,79.80
2019-04-06T08:58:55.907Z,83.60
2019-04-06T09:01:24.186Z,73.12
2019-04-06T09:03:52.516Z,75.00
2019-04-06T09:06:21.159Z,74.90
2019-04-06T09:08:50.089Z,81.40
2019-04-06T09:11:18.489Z,73.12
2019-04-06T09:13:47.380Z,74.15
2019-04-06T09:16:15.669Z,72.55
2019-04-06T09:18:43.929Z,72.17
2019-04-06T09:21:12.214Z,71.45
2019-04-06T09:23:40.473Z,65.37
2019-04-06T09:26:08.755Z,68.00
2019-04-06T09:28:37.025Z,69.92
2019-04-06T09:31:05.364Z,74.50
2019-04-06T09:33:33.643Z,66.95
2019-04-06T09:36:02.686Z,73.47
2019-04-06T09:38:30.935Z,75.30
2019-04-06T09:40:59.448Z,72.60
2019-04-06T09:43:27.800Z,69.95
2019-04-06T09:46:14.723Z,63.15
2019-04-06T09:49:00.695Z,70.42
2019-04-06T09:51:39.607Z,68.92
2019-04-06T09:54:09.512Z,69.45
2019-04-06T09:56:55.927Z,70.12
2019-04-06T09:59:35.303Z,68.67
2019-04-06T10:02:02.636Z,63.83
2019-04-06T10:04:32.537Z,70.62
2019-04-06T10:07:03.234Z,66.25
2019-04-06T10:09:50.893Z,64.62
2019-04-06T10:12:20.991Z,62.38
2019-04-06T10:15:09.983Z,68.62
2019-04-06T10:17:40.481Z,64.20
2019-04-06T10:20:22.849Z,75.87
2019-04-06T10:23:09.220Z,62.90
2019-04-06T10:25:41.550Z,63.30
2019-04-06T10:28:11.476Z,62.62
2019-04-06T10:30:41.380Z,58.38
2019-04-06T10:33:23.523Z,61.63
2019-04-06T10:35:56.079Z,59.95
2019-04-06T10:38:26.067Z,57.73
2019-04-06T10:41:02.413Z,59.23
2019-04-06T10:43:41.439Z,57.40
2019-04-06T10:46:20.369Z,54.80
2019-04-06T10:48:50.868Z,56.90
2019-04-06T10:51:23.170Z,55.83
2019-04-06T10:54:06.168Z,55.03
2019-04-06T10:56:39.259Z,48.52
2019-04-06T10:59:09.215Z,47.53
2019-04-06T11:01:39.087Z,50.75
2019-04-06T11:04:12.199Z,49.13
2019-04-06T11:06:44.765Z,50.33
2019-04-06T11:09:30.835Z,47.70
2019-04-06T11:12:03.428Z,50.40
2019-04-06T11:14:48.447Z,50.73
2019-04-06T11:17:35.223Z,46.33
2019-04-06T11:20:09.707Z,44.53
2019-04-06T11:22:51.831Z,42.33
2019-04-06T11:25:37.077Z,45.20
2019-04-06T11:28:06.979Z,43.50
2019-04-06T11:30:54.638Z,42.43
2019-04-06T11:33:24.537Z,40.70
2019-04-06T11:36:03.730Z,39.05
2019-04-06T11:38:52.071Z,41.85
2019-04-06T11:41:24.817Z,39.10
2019-04-06T11:44:11.255Z,36.77
2019-04-06T11:46:49.876Z,34.95
2019-04-06T11:49:32.801Z,33.58
2019-04-06T11:52:02.969Z,37.70
2019-04-06T11:54:38.600Z,42.98
2019-04-06T11:57:14.509Z,34.70
2019-04-06T11:59:46.896Z,37.03
2019-04-06T12:02:26.568Z,33.48
2019-04-06T12:05:11.214Z,36.17
2019-04-06T12:07:42.145Z,31.02
2019-04-06T12:10:12.090Z,31.10
2019-04-06T12:12:57.416Z,31.93
2019-04-06T12:15:33.657Z,30.45
2019-04-06T12:18:17.906Z,30.80
2019-04-06T12:21:02.904Z,29.85
2019-04-06T12:23:34.402Z,33.63
2019-04-06T12:26:22.362Z,32.98
2019-04-06T12:28:55.231Z,28.62
2019-04-06T12:31:25.157Z,28.42
2019-04-06T12:34:01.173Z,27.50
2019-04-06T12:36:33.842Z,26.93
2019-04-06T12:39:06.186Z,26.07
2019-04-06T12:41:51.155Z,28.62
2019-04-06T12:44:24.478Z,23.32
2019-04-06T12:46:54.402Z,24.37
2019-04-06T12:49:24.879Z,22.35
2019-04-06T12:52:07.084Z,23.10
2019-04-06T12:54:52.033Z,27.15
2019-04-06T12:57:31.001Z,24.50
2019-04-06T13:00:07.392Z,26.12
2019-04-06T13:02:40.264Z,25.80
2019-04-06T13:05:13.596Z,25.20
2019-04-06T13:07:46.688Z,23.22
2019-04-06T13:10:19.044Z,22.75
2019-04-06T13:12:57.838Z,23.90
2019-04-06T13:15:36.574Z,23.22
2019-04-06T13:18:09.449Z,21.25
2019-04-06T13:20:48.641Z,22.07
2019-04-06T13:23:27.460Z,23.07
2019-04-06T13:25:57.470Z,21.07
2019-04-06T13:28:33.427Z,19.48
2019-04-06T13:31:18.291Z,18.82
2019-04-06T13:33:54.632Z,20.52
2019-04-06T13:36:24.827Z,17.27
2019-04-06T13:41:27.076Z,16.73
2019-04-06T13:43:56.998Z,16.40
2019-04-06T13:46:27.670Z,17.98
2019-04-06T13:49:04.530Z,17.60
2019-04-06T13:51:54.089Z,15.85
2019-04-06T13:54:39.349Z,15.75
2019-04-06T13:57:12.616Z,15.85
2019-04-06T13:59:54.372Z,17.48
2019-04-06T14:02:30.275Z,15.63
2019-04-06T14:05:00.622Z,15.48
2019-04-06T14:07:45.945Z,16.25
2019-04-06T14:10:19.007Z,15.80
2019-04-06T14:12:49.755Z,13.75
2019-04-06T14:15:19.920Z,14.65
2019-04-06T14:20:37.772Z,17.07
2019-04-06T14:23:23.857Z,14.43
2019-04-06T14:26:06.774Z,16.55
2019-04-06T14:28:39.644Z,15.13
2019-04-06T14:31:09.781Z,16.45
2019-04-06T14:33:48.536Z,17.90
2019-04-06T14:36:24.286Z,18.15
2019-04-06T14:38:54.208Z,13.65
2019-04-06T14:41:26.821Z,14.03
2019-04-06T14:44:00.332Z,13.48
2019-04-06T14:46:30.228Z,13.13
2019-04-06T14:49:28.496Z,18.75
2019-04-06T14:51:51.072Z,16.45
2019-04-06T14:54:21.433Z,23.95
2019-04-06T14:56:57.168Z,24.40
2019-04-06T14:59:43.728Z,24.52
2019-04-06T15:02:19.624Z,28.23
2019-04-06T15:05:01.277Z,26.77
2019-04-06T15:07:36.960Z,30.40
2019-04-06T15:10:19.871Z,34.75
2019-04-06T15:13:02.031Z,36.60
2019-04-06T15:15:37.693Z,40.90
2019-04-06T15:18:14.168Z,40.33
2019-04-06T15:20:44.042Z,36.10
2019-04-06T15:23:17.049Z,38.30
2019-04-06T15:26:01.692Z,36.93
2019-04-06T15:28:34.251Z,41.70
2019-04-06T15:31:07.718Z,43.75
2019-04-06T15:33:40.092Z,47.55
2019-04-06T15:36:25.320Z,49.45
2019-04-06T15:39:11.424Z,49.18
2019-04-06T15:41:57.523Z,51.45
2019-04-06T15:44:30.827Z,54.85
2019-04-06T15:47:17.228Z,58.17
2019-04-06T15:49:58.910Z,57.27
2019-04-06T15:52:37.835Z,60.17
2019-04-06T15:55:11.232Z,78.05
2019-04-06T15:57:47.422Z,60.20
2019-04-06T16:00:19.831Z,59.25
2019-04-06T16:02:51.435Z,56.55
2019-04-06T16:05:24.834Z,58.05
2019-04-06T16:07:58.223Z,57.00
2019-04-06T16:10:37.666Z,58.28
2019-04-06T16:13:07.597Z,59.65
2019-04-06T16:15:37.556Z,56.25
2019-04-06T16:18:10.383Z,53.98
2019-04-06T16:20:42.967Z,53.02
2019-04-06T16:23:13.636Z,60.20
2019-04-06T16:25:52.482Z,54.83
2019-04-06T16:28:22.380Z,50.12
2019-04-06T16:30:57.748Z,48.65
2019-04-06T16:33:36.062Z,50.38
2019-04-06T16:36:09.815Z,51.90
2019-04-06T16:38:42.907Z,48.95
2019-04-06T16:41:18.851Z,48.85
2019-04-06T16:43:54.929Z,50.15
2019-04-06T16:46:41.739Z,45.67
2019-04-06T16:49:23.957Z,48.90
2019-04-06T16:51:54.198Z,45.12
2019-04-06T16:54:24.584Z,44.50
2019-04-06T16:59:29.987Z,45.73
2019-04-06T17:02:24.342Z,42.58
2019-04-06T17:05:04.952Z,42.70
2019-04-06T17:07:37.824Z,41.68
2019-04-06T17:10:23.058Z,39.95
2019-04-06T17:13:08.959Z,40.98
2019-04-06T17:15:38.881Z,42.15
2019-04-06T17:18:09.256Z,42.33
2019-04-06T17:20:39.179Z,37.60
2019-04-06T17:23:09.539Z,36.42
2019-04-06T17:25:51.929Z,43.58
2019-04-06T17:28:38.323Z,35.38
2019-04-06T17:31:17.395Z,37.48
2019-04-06T17:33:56.250Z,37.20
2019-04-06T17:36:43.086Z,38.80
2019-04-06T17:39:31.347Z,41.02
2019-04-06T17:42:16.843Z,37.10
2019-04-06T17:44:52.438Z,39.38
2019-04-06T17:47:38.482Z,37.83
2019-04-06T17:50:24.676Z,35.95
2019-04-06T17:52:55.478Z,41.73
2019-04-06T17:55:40.327Z,37.17
2019-04-06T17:58:10.756Z,39.67
2019-04-06T18:00:40.757Z,42.55
2019-04-06T18:03:26.362Z,42.20
2019-04-06T18:06:12.631Z,41.90
2019-04-06T18:08:49.012Z,42.35
2019-04-06T18:11:19.335Z,40.20
2019-04-06T18:16:18.596Z,42.90
2019-04-06T18:18:47.395Z,41.08
2019-04-06T18:21:16.458Z,41.60
2019-04-06T18:23:44.870Z,40.45
2019-04-06T18:26:13.123Z,42.15
2019-04-06T18:28:41.784Z,43.75
2019-04-06T18:31:28.534Z,45.20
2019-04-06T18:33:57.286Z,39.53
2019-04-06T18:36:27.632Z,40.45
2019-04-06T18:41:26.192Z,50.10
2019-04-06T18:43:54.668Z,42.73
2019-04-06T18:46:22.910Z,44.15
2019-04-06T18:48:51.205Z,40.58
2019-04-06T18:51:20.695Z,42.08
2019-04-06T18:53:49.066Z,42.67
2019-04-06T18:56:17.327Z,43.28
2019-04-06T18:58:46.180Z,42.38
2019-04-06T19:01:14.595Z,43.78
2019-04-06T19:03:43.373Z,39.98
2019-04-06T19:06:12.398Z,42.05
2019-04-06T19:08:40.843Z,40.28
2019-04-06T19:11:09.761Z,38.15
2019-04-06T19:13:39.003Z,44.50
2019-04-06T19:16:07.380Z,43.02
2019-04-06T19:18:36.250Z,43.75
2019-04-06T19:21:04.734Z,36.17
2019-04-06T19:23:34.384Z,35.65
2019-04-06T19:26:03.007Z,35.45
2019-04-06T19:28:32.284Z,38.90
2019-04-06T19:31:00.934Z,38.35
2019-04-06T19:33:29.420Z,35.10
2019-04-06T19:35:57.639Z,35.95
2019-04-06T19:38:25.926Z,36.45
2019-04-06T19:40:54.204Z,34.20
2019-04-06T19:43:22.936Z,32.93
2019-04-06T19:45:51.337Z,36.77
2019-04-06T19:48:20.006Z,36.73
2019-04-06T19:50:48.829Z,37.95
2019-04-06T19:53:17.731Z,35.95
2019-04-06T19:55:46.103Z,34.58
2019-04-06T19:58:15.218Z,35.33
2019-04-06T20:00:44.067Z,35.10
2019-04-06T20:03:12.483Z,35.35
2019-04-06T20:05:41.146Z,35.85
2019-04-06T20:08:09.828Z,33.08
2019-04-06T20:10:38.591Z,35.45
2019-04-06T20:13:07.351Z,36.98
2019-04-06T20:15:35.565Z,36.75
2019-04-06T20:18:03.849Z,37.55
2019-04-06T20:20:32.111Z,40.52
2019-04-06T20:23:00.512Z,36.80
2019-04-06T20:25:28.730Z,36.42
2019-04-06T20:27:57.617Z,36.55
2019-04-06T20:30:25.839Z,38.67
2019-04-06T20:32:54.102Z,36.38
2019-04-06T20:35:23.417Z,35.48
2019-04-06T20:37:52.713Z,37.88
2019-04-06T20:40:21.062Z,35.78
2019-04-06T20:42:49.996Z,36.17
2019-04-06T20:45:18.285Z,35.38
2019-04-06T20:47:46.549Z,37.85
2019-04-06T20:50:14.832Z,36.80
2019-04-06T20:52:43.097Z,37.75
2019-04-06T20:55:12.420Z,35.52
2019-04-06T20:57:41.754Z,39.63
2019-04-06T21:00:10.040Z,35.48
2019-04-06T21:02:38.303Z,35.25
2019-04-06T21:05:07.218Z,36.08
2019-04-06T21:07:36.043Z,37.73
2019-04-06T21:10:06.563Z,39.73
2019-04-06T21:12:35.207Z,39.55
2019-04-06T21:15:16.034Z,37.30
2019-04-06T21:17:34.308Z,40.85
2019-04-06T21:20:02.746Z,37.85
2019-04-06T21:22:31.067Z,37.65
2019-04-06T21:24:59.406Z,42.33
2019-04-06T21:27:28.743Z,38.42
2019-04-06T21:29:57.171Z,38.07
2019-04-06T21:32:26.057Z,41.42
2019-04-06T21:34:54.834Z,38.53
2019-04-06T21:37:23.135Z,41.08
2019-04-06T21:39:52.217Z,40.63
2019-04-06T21:42:20.931Z,36.65
2019-04-06T21:44:49.208Z,39.48
2019-04-06T21:47:17.469Z,39.23
2019-04-06T21:49:45.752Z,41.63
2019-04-06T21:52:14.076Z,41.02
2019-04-06T21:54:42.372Z,37.78
2019-04-06T21:57:11.402Z,39.63
2019-04-06T21:59:40.578Z,40.83
2019-04-06T22:02:08.801Z,40.83
2019-04-06T22:04:37.410Z,42.00
2019-04-06T22:07:06.438Z,39.30
2019-04-06T22:09:34.671Z,41.73
2019-04-06T22:12:03.341Z,39.95
2019-04-06T22:14:31.679Z,39.35
2019-04-06T22:16:59.984Z,43.10
2019-04-06T22:19:28.242Z,39.75
2019-04-06T22:21:57.281Z,40.95
2019-04-06T22:24:26.390Z,43.02
2019-04-06T22:26:55.050Z,40.33
2019-04-06T22:29:23.853Z,40.60
2019-04-06T22:31:52.121Z,44.98
2019-04-06T22:34:20.420Z,41.28
2019-04-06T22:36:48.678Z,40.75
2019-04-06T22:39:16.940Z,42.17
2019-04-06T22:41:45.798Z,39.88
2019-04-06T22:44:14.423Z,41.60
2019-04-06T22:46:43.070Z,43.17
2019-04-06T22:49:11.299Z,42.43
2019-04-06T22:51:40.815Z,44.45
2019-04-06T22:54:09.039Z,40.87
2019-04-06T22:56:37.436Z,42.78
2019-04-06T22:59:06.243Z,38.40
2019-04-06T23:01:36.894Z,42.27
2019-04-06T23:04:13.324Z,42.03
2019-04-06T23:06:43.267Z,38.42
2019-04-06T23:09:12.194Z,35.83
2019-04-06T23:11:40.946Z,35.75
2019-04-06T23:14:09.222Z,40.25
2019-04-06T23:16:39.311Z,36.40
2019-04-06T23:19:08.145Z,37.67
2019-04-06T23:21:36.445Z,35.17
2019-04-06T23:24:04.879Z,37.48
2019-04-06T23:26:34.458Z,35.92
2019-04-06T23:29:03.391Z,39.58
2019-04-06T23:31:32.284Z,37.60
2019-04-06T23:34:01.121Z,38.92
2019-04-06T23:36:29.492Z,42.35
2019-04-06T23:38:57.766Z,38.08
2019-04-06T23:41:26.777Z,35.23
2019-04-06T23:43:55.631Z,37.15
2019-04-06T23:46:24.561Z,40.05
2019-04-06T23:48:54.171Z,38.70
2019-04-06T23:51:23.386Z,37.45
2019-04-06T23:53:52.523Z,37.08
2019-04-06T23:56:20.819Z,36.83
2019-04-06T23:58:49.079Z,38.90
